createdAt,value
2017-12-25T00:00:33.623Z,6.10
2017-12-25T00:03:01.486Z,6.20
2017-12-25T00:05:29.629Z,6.20
2017-12-25T00:07:57.558Z,6.10
2017-12-25T00:10:25.454Z,6.10
2017-12-25T00:12:54.564Z,6.10
2017-12-25T00:15:25.460Z,6.20
2017-12-25T00:17:54.971Z,6.20
2017-12-25T00:20:22.952Z,6.20
2017-12-25T00:22:51.284Z,6.20
2017-12-25T00:25:21.426Z,6.20
2017-12-25T00:27:49.518Z,6.20
2017-12-25T00:30:21.940Z,6.20
2017-12-25T00:32:49.781Z,6.20
2017-12-25T00:35:18.657Z,6.20
2017-12-25T00:37:47.572Z,6.20
2017-12-25T00:40:15.628Z,6.20
2017-12-25T00:42:44.256Z,6.10
2017-12-25T00:45:12.590Z,6.10
2017-12-25T00:47:43.512Z,6.10
2017-12-25T00:50:11.614Z,6.10
2017-12-25T00:52:40.474Z,6.10
2017-12-25T00:55:09.072Z,6.00
2017-12-25T00:57:37.851Z,6.10
2017-12-25T01:00:05.633Z,6.10
2017-12-25T01:02:34.275Z,6.00
2017-12-25T01:05:04.666Z,6.00
2017-12-25T01:07:34.061Z,6.00
2017-12-25T01:10:02.214Z,6.00
2017-12-25T01:12:30.346Z,6.00
2017-12-25T01:14:58.232Z,6.00
2017-12-25T01:17:26.272Z,6.10
2017-12-25T01:19:54.191Z,6.10
2017-12-25T01:22:22.062Z,6.10
2017-12-25T01:24:50.129Z,6.10
2017-12-25T01:27:18.075Z,6.10
2017-12-25T01:29:46.094Z,6.10
2017-12-25T01:32:14.788Z,6.10
2017-12-25T01:34:43.407Z,6.10
2017-12-25T01:37:11.299Z,6.10
2017-12-25T01:39:39.588Z,6.10
2017-12-25T01:42:07.537Z,6.10
2017-12-25T01:44:35.343Z,6.10
2017-12-25T01:47:06.400Z,6.10
2017-12-25T01:49:35.370Z,6.10
2017-12-25T01:52:03.499Z,6.10
2017-12-25T01:54:33.104Z,6.10
2017-12-25T01:57:04.245Z,6.10
2017-12-25T01:59:36.833Z,6.10
2017-12-25T02:02:06.120Z,6.10
2017-12-25T02:04:34.151Z,6.00
2017-12-25T02:09:10.008Z,6.10
2017-12-25T02:11:38.654Z,6.00
2017-12-25T02:14:06.607Z,6.00
2017-12-25T02:16:34.679Z,6.00
2017-12-25T02:19:03.442Z,6.00
2017-12-25T02:21:32.105Z,6.00
2017-12-25T02:24:00.280Z,5.90
2017-12-25T02:26:28.942Z,5.90
2017-12-25T02:28:56.932Z,5.90
2017-12-25T02:31:24.975Z,5.90
2017-12-25T02:33:53.997Z,5.90
2017-12-25T02:36:22.395Z,5.90
2017-12-25T02:38:50.395Z,6.00
2017-12-25T02:41:18.477Z,6.00
2017-12-25T02:43:47.453Z,6.10
2017-12-25T02:46:21.188Z,6.10
2017-12-25T02:48:49.014Z,6.00
2017-12-25T02:51:16.923Z,6.10
2017-12-25T02:53:45.163Z,6.10
2017-12-25T02:56:13.846Z,6.10
2017-12-25T02:58:41.698Z,6.10
2017-12-25T03:01:09.580Z,6.10
2017-12-25T03:03:38.396Z,6.20
2017-12-25T03:06:06.400Z,6.20
2017-12-25T03:08:50.346Z,6.10
2017-12-25T03:11:18.362Z,6.20
2017-12-25T03:13:46.579Z,6.20
2017-12-25T03:16:14.572Z,6.20
2017-12-25T03:18:42.610Z,6.20
2017-12-25T03:21:10.536Z,6.20
2017-12-25T03:23:38.408Z,6.10
2017-12-25T03:26:06.403Z,6.20
2017-12-25T03:28:34.738Z,6.20
2017-12-25T03:31:02.594Z,6.10
2017-12-25T03:33:30.661Z,6.10
2017-12-25T03:36:00.128Z,6.10
2017-12-25T03:38:30.586Z,6.10
2017-12-25T03:41:02.619Z,6.10
2017-12-25T03:43:30.516Z,6.10
2017-12-25T03:45:58.409Z,6.00
2017-12-25T03:48:26.397Z,6.00
2017-12-25T03:50:55.389Z,5.90
2017-12-25T03:53:25.756Z,5.90
2017-12-25T03:55:54.545Z,5.90
2017-12-25T03:58:22.712Z,5.90
2017-12-25T04:01:02.436Z,5.90
2017-12-25T04:03:31.238Z,5.80
2017-12-25T04:05:59.266Z,5.80
2017-12-25T04:08:28.650Z,5.80
2017-12-25T04:10:57.536Z,5.80
2017-12-25T04:13:27.406Z,5.80
2017-12-25T04:15:57.907Z,5.80
2017-12-25T04:18:28.655Z,5.80
2017-12-25T04:20:58.190Z,5.80
2017-12-25T04:23:26.838Z,5.80
2017-12-25T04:25:55.808Z,5.80
2017-12-25T04:29:56.152Z,5.80
2017-12-25T04:32:27.289Z,5.80
2017-12-25T04:34:56.622Z,5.80
2017-12-25T04:37:25.960Z,5.80
2017-12-25T04:39:53.807Z,5.80
2017-12-25T04:42:23.362Z,5.80
2017-12-25T04:44:52.758Z,5.80
2017-12-25T04:47:25.324Z,5.70
2017-12-25T04:49:53.155Z,5.70
2017-12-25T04:52:21.127Z,5.60
2017-12-25T04:54:49.023Z,5.60
2017-12-25T04:57:20.474Z,5.60
2017-12-25T04:59:48.276Z,5.50
2017-12-25T05:02:16.154Z,5.50
2017-12-25T05:04:44.036Z,5.60
2017-12-25T05:07:11.993Z,5.60
2017-12-25T05:09:40.056Z,5.50
2017-12-25T05:12:07.971Z,5.50
2017-12-25T05:14:35.953Z,5.50
2017-12-25T05:17:05.294Z,5.40
2017-12-25T05:19:33.217Z,5.40
2017-12-25T05:22:01.918Z,5.50
2017-12-25T05:24:30.072Z,5.50
2017-12-25T05:26:58.861Z,5.50
2017-12-25T05:29:26.733Z,5.50
2017-12-25T05:31:54.622Z,5.50
2017-12-25T05:34:23.260Z,5.50
2017-12-25T05:36:51.908Z,5.50
2017-12-25T05:39:19.854Z,5.40
2017-12-25T05:41:48.519Z,5.40
2017-12-25T05:44:16.523Z,5.40
2017-12-25T05:46:44.646Z,5.40
2017-12-25T05:49:13.313Z,5.40
2017-12-25T05:51:41.257Z,5.40
2017-12-25T05:54:09.866Z,5.40
2017-12-25T05:56:37.784Z,5.40
2017-12-25T05:59:05.821Z,5.50
2017-12-25T06:01:33.687Z,5.50
2017-12-25T06:04:01.636Z,5.50
2017-12-25T06:06:30.303Z,5.40
2017-12-25T06:08:58.197Z,5.40
2017-12-25T06:11:26.744Z,5.40
2017-12-25T06:13:54.728Z,5.40
2017-12-25T06:16:22.741Z,5.40
2017-12-25T06:18:50.701Z,5.40
2017-12-25T06:21:18.518Z,5.40
2017-12-25T06:23:46.418Z,5.30
2017-12-25T06:26:15.111Z,5.40
2017-12-25T06:28:45.939Z,5.40
2017-12-25T06:31:13.952Z,5.30
2017-12-25T06:33:41.880Z,5.30
2017-12-25T06:36:09.732Z,5.30
2017-12-25T06:38:39.856Z,5.30
2017-12-25T06:41:09.196Z,5.30
2017-12-25T06:43:39.102Z,5.30
2017-12-25T06:46:07.027Z,5.30
2017-12-25T06:49:04.966Z,5.30
2017-12-25T06:51:33.490Z,5.30
2017-12-25T06:54:10.249Z,5.20
2017-12-25T06:56:38.228Z,5.20
2017-12-25T06:59:06.305Z,5.20
2017-12-25T07:01:34.142Z,5.10
2017-12-25T07:04:02.003Z,5.10
2017-12-25T07:06:33.093Z,5.10
2017-12-25T07:09:00.978Z,5.00
2017-12-25T07:11:28.856Z,5.00
2017-12-25T07:13:57.539Z,5.00
2017-12-25T07:16:25.356Z,5.00
2017-12-25T07:18:53.185Z,5.00
2017-12-25T07:21:20.948Z,5.00
2017-12-25T07:23:48.867Z,5.00
2017-12-25T07:26:16.733Z,5.00
2017-12-25T07:28:44.617Z,5.00
2017-12-25T07:31:12.785Z,5.00
2017-12-25T07:33:40.660Z,5.00
2017-12-25T07:36:08.585Z,5.00
2017-12-25T07:38:36.487Z,5.00
2017-12-25T07:41:04.374Z,5.10
2017-12-25T07:43:32.217Z,5.10
2017-12-25T07:46:00.104Z,5.10
2017-12-25T07:48:27.957Z,5.10
2017-12-25T07:50:55.845Z,5.10
2017-12-25T07:53:23.665Z,5.10
2017-12-25T07:55:51.521Z,5.10
2017-12-25T07:58:19.429Z,5.20
2017-12-25T08:00:47.362Z,5.10
2017-12-25T08:03:15.400Z,5.10
2017-12-25T08:05:44.082Z,5.10
2017-12-25T08:08:11.901Z,5.10
2017-12-25T08:10:40.149Z,5.10
2017-12-25T08:13:08.742Z,5.00
2017-12-25T08:15:37.411Z,5.00
2017-12-25T08:18:06.073Z,5.00
2017-12-25T08:23:14.661Z,4.90
2017-12-25T08:25:42.470Z,4.90
2017-12-25T08:28:10.437Z,4.90
2017-12-25T08:30:38.267Z,4.90
2017-12-25T08:33:06.101Z,4.90
2017-12-25T08:35:33.941Z,4.90
2017-12-25T08:38:01.764Z,4.90
2017-12-25T08:40:29.608Z,4.90
2017-12-25T08:42:58.156Z,4.90
2017-12-25T08:45:25.969Z,4.90
2017-12-25T08:47:53.926Z,4.90
2017-12-25T08:50:22.715Z,4.90
2017-12-25T08:52:51.477Z,4.90
2017-12-25T08:55:19.374Z,4.90
2017-12-25T08:57:48.285Z,5.00
2017-12-25T09:00:16.877Z,5.00
2017-12-25T09:02:45.818Z,5.00
2017-12-25T09:05:24.244Z,5.00
2017-12-25T09:07:52.218Z,5.00
2017-12-25T09:10:20.120Z,5.00
2017-12-25T09:12:48.169Z,5.00
2017-12-25T09:15:16.896Z,5.00
2017-12-25T09:17:45.138Z,5.00
2017-12-25T09:20:14.841Z,5.00
2017-12-25T09:22:52.761Z,4.90
2017-12-25T09:25:20.770Z,4.90
2017-12-25T09:27:51.699Z,5.00
2017-12-25T09:30:19.808Z,4.90
2017-12-25T09:32:48.685Z,4.90
2017-12-25T09:35:21.950Z,4.80
2017-12-25T09:37:50.249Z,4.90
2017-12-25T09:40:18.093Z,4.90
2017-12-25T09:42:46.698Z,4.80
2017-12-25T09:45:14.596Z,4.80
2017-12-25T09:47:42.724Z,4.90
2017-12-25T09:50:10.549Z,4.90
2017-12-25T09:52:38.544Z,5.00
2017-12-25T09:55:06.426Z,4.90
2017-12-25T09:57:35.123Z,4.90
2017-12-25T10:00:04.211Z,4.90
2017-12-25T10:02:32.385Z,4.90
2017-12-25T10:05:01.066Z,5.00
2017-12-25T10:07:36.157Z,5.00
2017-12-25T10:10:03.969Z,5.00
2017-12-25T10:12:36.662Z,5.00
2017-12-25T10:15:05.029Z,5.00
2017-12-25T10:17:33.178Z,5.00
2017-12-25T10:20:01.470Z,5.00
2017-12-25T10:22:29.915Z,5.00
2017-12-25T10:25:02.317Z,4.90
2017-12-25T10:27:30.303Z,4.90
2017-12-25T10:29:58.465Z,4.80
2017-12-25T10:32:26.635Z,4.80
2017-12-25T10:34:56.884Z,4.70
2017-12-25T10:37:24.788Z,4.70
2017-12-25T10:39:52.825Z,4.80
2017-12-25T10:42:22.961Z,4.70
2017-12-25T10:44:51.135Z,4.70
2017-12-25T10:47:19.050Z,4.70
2017-12-25T10:49:49.641Z,4.70
2017-12-25T10:52:28.567Z,4.70
2017-12-25T10:55:13.971Z,4.70
2017-12-25T10:57:42.124Z,4.70
2017-12-25T11:00:10.468Z,4.70
2017-12-25T11:02:47.425Z,4.80
2017-12-25T11:05:15.697Z,4.80
2017-12-25T11:07:44.035Z,4.80
2017-12-25T11:10:12.224Z,4.80
2017-12-25T11:12:41.261Z,4.80
2017-12-25T11:15:10.478Z,4.70
2017-12-25T11:17:38.966Z,4.70
2017-12-25T11:20:06.933Z,4.70
2017-12-25T11:22:35.933Z,4.70
2017-12-25T11:25:04.005Z,4.70
2017-12-25T11:27:32.714Z,4.60
2017-12-25T11:30:02.954Z,4.70
2017-12-25T11:32:41.845Z,4.50
2017-12-25T11:35:12.830Z,4.50
2017-12-25T11:37:40.788Z,4.50
2017-12-25T11:40:09.125Z,4.50
2017-12-25T11:42:39.492Z,4.60
2017-12-25T11:45:07.773Z,4.60
2017-12-25T11:47:39.613Z,4.80
2017-12-25T11:50:08.125Z,4.80
2017-12-25T11:52:45.102Z,4.80
2017-12-25T11:55:14.035Z,4.80
2017-12-25T11:57:44.043Z,4.90
2017-12-25T12:00:12.634Z,4.90
2017-12-25T12:02:44.959Z,4.70
2017-12-25T12:05:14.888Z,4.50
2017-12-25T12:07:45.826Z,4.50
2017-12-25T12:10:14.772Z,4.60
2017-12-25T12:12:43.620Z,4.60
2017-12-25T12:15:12.549Z,4.60
2017-12-25T12:17:41.956Z,4.60
2017-12-25T12:20:10.192Z,4.50
2017-12-25T12:22:38.742Z,4.50
2017-12-25T12:25:06.687Z,4.50
2017-12-25T12:27:37.171Z,4.40
2017-12-25T12:30:07.332Z,4.40
2017-12-25T12:32:36.701Z,4.40
2017-12-25T12:35:04.646Z,4.40
2017-12-25T12:37:32.555Z,4.40
2017-12-25T12:40:02.437Z,4.60
2017-12-25T12:42:31.182Z,4.50
2017-12-25T12:44:59.861Z,4.70
2017-12-25T12:47:27.878Z,4.70
2017-12-25T12:49:59.307Z,4.70
2017-12-25T12:52:27.257Z,4.70
2017-12-25T12:54:56.042Z,4.50
2017-12-25T12:57:25.462Z,4.60
2017-12-25T12:59:53.694Z,4.50
2017-12-25T13:02:23.134Z,4.40
2017-12-25T13:04:52.626Z,4.50
2017-12-25T13:07:44.253Z,4.40
2017-12-25T13:10:14.520Z,4.50
2017-12-25T13:12:42.803Z,4.50
2017-12-25T13:15:14.606Z,4.60
2017-12-25T13:17:43.066Z,4.70
2017-12-25T13:20:11.766Z,4.60
2017-12-25T13:22:40.312Z,4.70
2017-12-25T13:25:10.390Z,4.70
2017-12-25T13:27:42.408Z,4.50
2017-12-25T13:30:10.537Z,4.50
2017-12-25T13:32:38.670Z,4.50
2017-12-25T13:35:09.323Z,4.50
2017-12-25T13:37:37.667Z,4.50
2017-12-25T13:40:05.952Z,4.50
2017-12-25T13:42:35.433Z,4.50
2017-12-25T13:45:05.858Z,4.40
2017-12-25T13:47:37.146Z,4.30
2017-12-25T13:50:05.424Z,4.30
2017-12-25T13:52:35.169Z,4.30
2017-12-25T13:55:05.978Z,4.30
2017-12-25T13:57:35.687Z,4.30
2017-12-25T14:00:16.030Z,4.30
2017-12-25T14:02:44.793Z,4.30
2017-12-25T14:05:13.164Z,4.40
2017-12-25T14:07:45.261Z,4.40
2017-12-25T14:10:21.036Z,4.30
2017-12-25T14:12:50.212Z,4.40
2017-12-25T14:15:18.871Z,4.40
2017-12-25T14:17:47.945Z,4.50
2017-12-25T14:20:16.724Z,4.40
2017-12-25T14:22:44.838Z,4.50
2017-12-25T14:25:13.037Z,4.40
2017-12-25T14:27:41.054Z,4.50
2017-12-25T14:30:10.458Z,4.40
2017-12-25T14:32:39.350Z,4.50
2017-12-25T14:35:07.318Z,4.50
2017-12-25T14:37:35.787Z,4.50
2017-12-25T14:40:04.559Z,4.50
2017-12-25T14:42:33.961Z,4.40
2017-12-25T14:45:06.631Z,4.40
2017-12-25T14:47:46.981Z,4.50
2017-12-25T14:50:15.256Z,4.60
2017-12-25T14:52:53.543Z,4.50
2017-12-25T14:55:22.585Z,4.50
2017-12-25T14:57:51.364Z,4.50
2017-12-25T15:00:20.146Z,4.50
2017-12-25T15:02:51.695Z,4.50
2017-12-25T15:05:20.315Z,4.40
2017-12-25T15:07:48.666Z,4.50
2017-12-25T15:10:16.775Z,4.40
2017-12-25T15:12:45.135Z,4.40
2017-12-25T15:15:13.710Z,4.40
2017-12-25T15:17:42.219Z,4.40
2017-12-25T15:20:12.245Z,4.40
2017-12-25T15:22:42.843Z,4.40
2017-12-25T15:25:13.589Z,4.40
2017-12-25T15:30:04.726Z,4.40
2017-12-25T15:32:34.676Z,4.40
2017-12-25T15:35:04.364Z,4.40
2017-12-25T15:37:39.265Z,4.40
2017-12-25T15:40:08.355Z,4.50
2017-12-25T15:42:41.555Z,4.40
2017-12-25T15:45:11.854Z,4.30
2017-12-25T15:47:41.649Z,4.40
2017-12-25T15:50:11.610Z,4.40
2017-12-25T15:52:45.835Z,4.30
2017-12-25T15:55:46.308Z,4.30
2017-12-25T15:58:18.852Z,4.20
2017-12-25T16:00:49.671Z,4.30
2017-12-25T16:03:26.191Z,4.30
2017-12-25T16:06:00.138Z,4.30
2017-12-25T16:08:30.046Z,4.30
2017-12-25T16:11:00.208Z,4.30
2017-12-25T16:13:28.890Z,4.30
2017-12-25T16:15:58.712Z,4.30
2017-12-25T16:18:30.330Z,4.30
2017-12-25T16:20:59.384Z,4.20
2017-12-25T16:23:30.927Z,4.30
2017-12-25T16:26:01.002Z,4.30
2017-12-25T16:28:31.050Z,4.30
2017-12-25T16:31:00.114Z,4.30
2017-12-25T16:33:31.625Z,4.20
2017-12-25T16:36:01.005Z,4.20
2017-12-25T16:38:30.370Z,4.20
2017-12-25T16:40:59.430Z,4.10
2017-12-25T16:43:32.743Z,4.10
2017-12-25T16:46:00.948Z,4.10
2017-12-25T16:48:29.734Z,4.20
2017-12-25T16:50:58.731Z,4.10
2017-12-25T16:53:32.788Z,4.20
2017-12-25T16:56:04.162Z,4.20
2017-12-25T16:58:37.749Z,4.20
2017-12-25T17:01:19.478Z,4.10
2017-12-25T17:03:59.065Z,4.10
2017-12-25T17:06:35.070Z,4.10
2017-12-25T17:09:08.511Z,4.20
2017-12-25T17:11:53.308Z,4.10
2017-12-25T17:14:25.194Z,4.20
2017-12-25T17:16:59.117Z,4.20
2017-12-25T17:19:32.115Z,4.20
2017-12-25T17:22:05.722Z,4.20
2017-12-25T17:24:41.239Z,4.10
2017-12-25T17:27:23.291Z,4.10
2017-12-25T17:29:54.675Z,4.20
2017-12-25T17:32:25.392Z,4.20
2017-12-25T17:34:56.502Z,4.10
2017-12-25T17:37:32.033Z,4.10
2017-12-25T17:40:03.690Z,4.00
2017-12-25T17:42:33.086Z,4.00
2017-12-25T17:45:06.909Z,4.00
2017-12-25T17:47:40.332Z,4.00
2017-12-25T17:50:10.554Z,3.90
2017-12-25T17:52:43.988Z,4.00
2017-12-25T17:55:17.900Z,4.00
2017-12-25T17:57:54.194Z,3.90
2017-12-25T18:00:26.406Z,4.00
2017-12-25T18:02:54.896Z,4.00
2017-12-25T18:05:24.805Z,4.00
2017-12-25T18:07:54.574Z,4.00
2017-12-25T18:10:29.459Z,4.00
2017-12-25T18:13:04.698Z,4.00
2017-12-25T18:15:39.216Z,4.00
2017-12-25T18:18:10.716Z,4.10
2017-12-25T18:20:44.589Z,4.10
2017-12-25T18:23:27.763Z,4.10
2017-12-25T18:26:10.388Z,4.00
2017-12-25T18:28:40.841Z,4.00
2017-12-25T18:31:12.955Z,3.90
2017-12-25T18:33:56.274Z,3.90
2017-12-25T18:36:30.204Z,3.90
2017-12-25T18:39:10.005Z,3.90
2017-12-25T18:41:40.465Z,4.00
2017-12-25T18:44:21.782Z,3.90
2017-12-25T18:46:56.926Z,4.00
2017-12-25T18:49:30.018Z,3.80
2017-12-25T18:52:14.386Z,3.90
2017-12-25T18:54:48.547Z,3.90
2017-12-25T18:57:18.249Z,3.80
2017-12-25T18:59:49.009Z,3.80
2017-12-25T19:02:21.705Z,3.80
2017-12-25T19:04:54.160Z,3.70
2017-12-25T19:07:27.502Z,3.70
2017-12-25T19:10:01.401Z,3.70
2017-12-25T19:12:34.607Z,3.70
2017-12-25T19:15:04.218Z,3.70
2017-12-25T19:17:35.025Z,3.70
2017-12-25T19:20:06.860Z,3.70
2017-12-25T19:22:37.754Z,3.70
2017-12-25T19:25:06.843Z,3.60
2017-12-25T19:27:36.951Z,3.60
2017-12-25T19:30:11.293Z,3.60
2017-12-25T19:32:47.641Z,3.50
2017-12-25T19:35:22.202Z,3.50
2017-12-25T19:37:52.990Z,3.50
2017-12-25T19:40:24.205Z,3.40
2017-12-25T19:43:01.681Z,3.40
2017-12-25T19:45:31.576Z,3.40
2017-12-25T19:48:04.419Z,3.40
2017-12-25T19:50:34.016Z,3.30
2017-12-25T19:53:04.850Z,3.30
2017-12-25T19:55:36.077Z,3.30
2017-12-25T19:58:07.586Z,3.20
2017-12-25T20:00:38.023Z,3.30
2017-12-25T20:03:08.694Z,3.30
2017-12-25T20:05:39.172Z,3.30
2017-12-25T20:08:10.016Z,3.20
2017-12-25T20:10:41.659Z,3.20
2017-12-25T20:13:13.459Z,3.20
2017-12-25T20:15:45.715Z,3.10
2017-12-25T20:18:17.015Z,3.20
2017-12-25T20:20:47.945Z,3.10
2017-12-25T20:23:19.008Z,3.10
2017-12-25T20:25:53.965Z,3.00
2017-12-25T20:28:29.714Z,3.00
2017-12-25T20:31:02.511Z,3.00
2017-12-25T20:33:33.724Z,3.00
2017-12-25T20:36:07.944Z,3.00
2017-12-25T20:40:08.076Z,3.00
2017-12-25T20:42:38.686Z,2.90
2017-12-25T20:45:25.662Z,2.90
2017-12-25T20:47:57.426Z,2.90
2017-12-25T20:50:29.810Z,3.00
2017-12-25T20:53:18.081Z,3.00
2017-12-25T20:56:05.970Z,2.90
2017-12-25T20:58:38.292Z,2.90
2017-12-25T21:01:10.802Z,2.90
2017-12-25T21:03:56.049Z,2.90
2017-12-25T21:06:29.596Z,2.90
2017-12-25T21:09:01.723Z,2.90
2017-12-25T21:11:37.527Z,2.90
2017-12-25T21:14:09.881Z,2.90
2017-12-25T21:16:44.328Z,2.80
2017-12-25T21:19:17.066Z,2.80
2017-12-25T21:21:49.385Z,2.80
2017-12-25T21:24:19.553Z,2.70
2017-12-25T21:26:52.960Z,2.70
2017-12-25T21:29:23.376Z,2.70
2017-12-25T21:31:53.617Z,2.70
2017-12-25T21:34:22.971Z,2.70
2017-12-25T21:36:55.916Z,2.70
2017-12-25T21:39:28.090Z,2.70
2017-12-25T21:41:59.855Z,2.60
2017-12-25T21:44:33.201Z,2.60
2017-12-25T21:47:08.574Z,2.60
2017-12-25T21:49:44.324Z,2.60
2017-12-25T21:52:40.619Z,2.60
2017-12-25T21:55:16.943Z,2.60
2017-12-25T22:00:25.683Z,2.70
2017-12-25T22:02:56.999Z,2.70
2017-12-25T22:05:55.614Z,2.70
2017-12-25T22:08:30.400Z,2.70
2017-12-25T22:11:07.133Z,2.70
2017-12-25T22:13:39.511Z,2.70
2017-12-25T22:22:43.583Z,2.80
2017-12-25T22:25:31.802Z,2.80
2017-12-25T22:28:13.412Z,2.80
2017-12-25T22:33:27.455Z,2.80
2017-12-25T22:36:18.498Z,2.90
2017-12-25T22:38:55.844Z,2.90
2017-12-25T22:41:31.716Z,2.90
2017-12-25T22:44:03.794Z,2.90
2017-12-25T22:46:33.417Z,2.90
2017-12-25T22:49:03.581Z,3.00
2017-12-25T22:51:32.955Z,3.00
2017-12-25T22:54:02.935Z,3.00
2017-12-25T22:56:35.100Z,3.10
2017-12-25T22:59:07.246Z,3.10
2017-12-25T23:01:36.618Z,3.10
2017-12-25T23:04:06.357Z,3.20
2017-12-25T23:06:36.317Z,3.30
2017-12-25T23:09:09.442Z,3.20
2017-12-25T23:11:40.986Z,3.30
2017-12-25T23:14:09.905Z,3.30
2017-12-25T23:16:38.198Z,3.30
2017-12-25T23:19:08.098Z,3.40
2017-12-25T23:21:36.284Z,3.40
2017-12-25T23:24:04.863Z,3.30
2017-12-25T23:26:33.837Z,3.30
2017-12-25T23:29:02.171Z,3.20
2017-12-25T23:31:36.069Z,3.30
2017-12-25T23:34:04.065Z,3.30
2017-12-25T23:36:33.104Z,3.20
2017-12-25T23:39:02.630Z,3.20
2017-12-25T23:41:38.212Z,3.20
2017-12-25T23:44:06.313Z,3.20
2017-12-25T23:46:34.270Z,3.30
2017-12-25T23:49:02.619Z,3.20
2017-12-25T23:51:32.434Z,3.20
2017-12-25T23:54:01.842Z,3.30
2017-12-25T23:56:30.695Z,3.30
2017-12-25T23:58:59.080Z,3.30
